sensor_id;sensor_type;location;lat;lon;timestamp;P1;durP1;ratioP1;P2;durP2;ratioP2
77597;SDS011;66756;42.774;23.354;2023-07-29T00:00:45;5.43;;;2.30;;
77597;SDS011;66756;42.774;23.354;2023-07-29T00:03:12;2.63;;;1.33;;
77597;SDS011;66756;42.774;23.354;2023-07-29T00:05:38;3.72;;;1.90;;
77597;SDS011;66756;42.774;23.354;2023-07-29T00:08:04;2.67;;;1.65;;
77597;SDS011;66756;42.774;23.354;2023-07-29T00:10:31;4.15;;;1.85;;
77597;SDS011;66756;42.774;23.354;2023-07-29T00:12:57;2.90;;;1.52;;
77597;SDS011;66756;42.774;23.354;2023-07-29T00:15:23;4.55;;;1.58;;
77597;SDS011;66756;42.774;23.354;2023-07-29T00:17:49;5.68;;;1.88;;
77597;SDS011;66756;42.774;23.354;2023-07-29T00:20:15;3.05;;;1.70;;
77597;SDS011;66756;42.774;23.354;2023-07-29T00:22:41;3.30;;;1.73;;
77597;SDS011;66756;42.774;23.354;2023-07-29T00:25:07;3.17;;;1.30;;
77597;SDS011;66756;42.774;23.354;2023-07-29T00:27:33;3.30;;;1.85;;
77597;SDS011;66756;42.774;23.354;2023-07-29T00:29:59;2.85;;;1.40;;
77597;SDS011;66756;42.774;23.354;2023-07-29T00:32:27;3.42;;;1.40;;
77597;SDS011;66756;42.774;23.354;2023-07-29T00:34:53;2.10;;;1.20;;
77597;SDS011;66756;42.774;23.354;2023-07-29T00:37:19;2.50;;;1.27;;
77597;SDS011;66756;42.774;23.354;2023-07-29T00:39:45;4.78;;;1.45;;
77597;SDS011;66756;42.774;23.354;2023-07-29T00:42:11;3.05;;;2.17;;
77597;SDS011;66756;42.774;23.354;2023-07-29T00:44:37;2.83;;;1.60;;
77597;SDS011;66756;42.774;23.354;2023-07-29T00:47:03;2.17;;;1.20;;
77597;SDS011;66756;42.774;23.354;2023-07-29T00:49:30;3.45;;;1.42;;
77597;SDS011;66756;42.774;23.354;2023-07-29T00:51:57;2.78;;;1.70;;
77597;SDS011;66756;42.774;23.354;2023-07-29T00:54:23;4.07;;;2.53;;
77597;SDS011;66756;42.774;23.354;2023-07-29T00:56:49;3.60;;;1.58;;
77597;SDS011;66756;42.774;23.354;2023-07-29T00:59:15;3.63;;;1.35;;
77597;SDS011;66756;42.774;23.354;2023-07-29T01:01:42;4.30;;;1.45;;
77597;SDS011;66756;42.774;23.354;2023-07-29T01:04:08;3.85;;;1.95;;
77597;SDS011;66756;42.774;23.354;2023-07-29T01:09:03;3.08;;;1.38;;
77597;SDS011;66756;42.774;23.354;2023-07-29T01:11:37;2.88;;;1.00;;
77597;SDS011;66756;42.774;23.354;2023-07-29T01:16:52;4.03;;;1.40;;
77597;SDS011;66756;42.774;23.354;2023-07-29T01:22:03;3.22;;;1.02;;
77597;SDS011;66756;42.774;23.354;2023-07-29T01:24:29;3.45;;;1.25;;
77597;SDS011;66756;42.774;23.354;2023-07-29T01:26:55;4.00;;;1.67;;
77597;SDS011;66756;42.774;23.354;2023-07-29T01:29:22;2.25;;;1.10;;
77597;SDS011;66756;42.774;23.354;2023-07-29T01:31:48;2.60;;;1.83;;
77597;SDS011;66756;42.774;23.354;2023-07-29T01:34:22;2.85;;;1.40;;
77597;SDS011;66756;42.774;23.354;2023-07-29T01:36:50;2.47;;;0.90;;
77597;SDS011;66756;42.774;23.354;2023-07-29T01:39:17;2.83;;;1.70;;
77597;SDS011;66756;42.774;23.354;2023-07-29T01:41:43;2.97;;;1.55;;
77597;SDS011;66756;42.774;23.354;2023-07-29T01:44:09;2.72;;;1.52;;
77597;SDS011;66756;42.774;23.354;2023-07-29T01:46:36;3.13;;;1.70;;
77597;SDS011;66756;42.774;23.354;2023-07-29T01:49:02;3.00;;;1.48;;
77597;SDS011;66756;42.774;23.354;2023-07-29T01:51:28;3.67;;;1.63;;
77597;SDS011;66756;42.774;23.354;2023-07-29T01:53:54;3.47;;;1.65;;
77597;SDS011;66756;42.774;23.354;2023-07-29T01:56:20;2.92;;;1.85;;
77597;SDS011;66756;42.774;23.354;2023-07-29T01:58:46;4.80;;;1.95;;
77597;SDS011;66756;42.774;23.354;2023-07-29T02:01:12;2.72;;;1.58;;
77597;SDS011;66756;42.774;23.354;2023-07-29T02:03:38;3.33;;;2.22;;
77597;SDS011;66756;42.774;23.354;2023-07-29T02:06:04;3.90;;;1.83;;
77597;SDS011;66756;42.774;23.354;2023-07-29T02:08:30;3.55;;;1.88;;
77597;SDS011;66756;42.774;23.354;2023-07-29T02:10:56;3.55;;;2.00;;
77597;SDS011;66756;42.774;23.354;2023-07-29T02:13:22;3.45;;;1.85;;
77597;SDS011;66756;42.774;23.354;2023-07-29T02:15:48;3.83;;;2.15;;
77597;SDS011;66756;42.774;23.354;2023-07-29T02:18:14;4.47;;;2.80;;
77597;SDS011;66756;42.774;23.354;2023-07-29T02:20:40;3.22;;;2.20;;
77597;SDS011;66756;42.774;23.354;2023-07-29T02:23:13;3.22;;;2.05;;
77597;SDS011;66756;42.774;23.354;2023-07-29T02:25:39;4.05;;;2.72;;
77597;SDS011;66756;42.774;23.354;2023-07-29T02:28:05;4.32;;;2.58;;
77597;SDS011;66756;42.774;23.354;2023-07-29T02:30:31;4.10;;;1.95;;
77597;SDS011;66756;42.774;23.354;2023-07-29T02:32:57;3.67;;;1.95;;
77597;SDS011;66756;42.774;23.354;2023-07-29T02:35:26;4.10;;;1.95;;
77597;SDS011;66756;42.774;23.354;2023-07-29T02:37:52;4.28;;;2.30;;
77597;SDS011;66756;42.774;23.354;2023-07-29T02:40:18;4.63;;;2.63;;
77597;SDS011;66756;42.774;23.354;2023-07-29T02:42:45;4.22;;;1.80;;
77597;SDS011;66756;42.774;23.354;2023-07-29T02:45:11;4.18;;;2.25;;
77597;SDS011;66756;42.774;23.354;2023-07-29T02:47:38;3.78;;;1.67;;
77597;SDS011;66756;42.774;23.354;2023-07-29T02:50:04;4.38;;;2.20;;
77597;SDS011;66756;42.774;23.354;2023-07-29T02:52:30;4.20;;;2.22;;
77597;SDS011;66756;42.774;23.354;2023-07-29T02:54:56;3.38;;;1.33;;
77597;SDS011;66756;42.774;23.354;2023-07-29T02:57:22;3.38;;;1.58;;
77597;SDS011;66756;42.774;23.354;2023-07-29T02:59:48;4.13;;;2.17;;
77597;SDS011;66756;42.774;23.354;2023-07-29T03:02:14;3.55;;;2.22;;
77597;SDS011;66756;42.774;23.354;2023-07-29T03:04:41;3.47;;;2.15;;
77597;SDS011;66756;42.774;23.354;2023-07-29T03:07:07;4.30;;;2.33;;
77597;SDS011;66756;42.774;23.354;2023-07-29T03:09:33;3.00;;;2.15;;
77597;SDS011;66756;42.774;23.354;2023-07-29T03:11:59;4.18;;;2.30;;
77597;SDS011;66756;42.774;23.354;2023-07-29T03:14:25;4.75;;;2.30;;
77597;SDS011;66756;42.774;23.354;2023-07-29T03:16:52;4.32;;;2.20;;
77597;SDS011;66756;42.774;23.354;2023-07-29T03:19:18;4.03;;;2.28;;
77597;SDS011;66756;42.774;23.354;2023-07-29T03:21:44;6.15;;;2.50;;
77597;SDS011;66756;42.774;23.354;2023-07-29T03:24:11;2.80;;;1.60;;
77597;SDS011;66756;42.774;23.354;2023-07-29T03:26:37;4.25;;;2.08;;
77597;SDS011;66756;42.774;23.354;2023-07-29T03:29:03;3.53;;;1.98;;
77597;SDS011;66756;42.774;23.354;2023-07-29T03:31:29;3.05;;;1.95;;
77597;SDS011;66756;42.774;23.354;2023-07-29T03:33:55;4.07;;;2.15;;
77597;SDS011;66756;42.774;23.354;2023-07-29T03:36:21;3.95;;;2.30;;
77597;SDS011;66756;42.774;23.354;2023-07-29T03:38:47;3.40;;;1.77;;
77597;SDS011;66756;42.774;23.354;2023-07-29T03:41:13;5.45;;;2.28;;
77597;SDS011;66756;42.774;23.354;2023-07-29T03:43:39;4.05;;;2.47;;
77597;SDS011;66756;42.774;23.354;2023-07-29T03:46:05;3.85;;;2.35;;
77597;SDS011;66756;42.774;23.354;2023-07-29T03:48:31;4.45;;;2.13;;
77597;SDS011;66756;42.774;23.354;2023-07-29T03:50:57;3.63;;;2.30;;
77597;SDS011;66756;42.774;23.354;2023-07-29T03:53:23;3.25;;;1.98;;
77597;SDS011;66756;42.774;23.354;2023-07-29T03:55:49;3.67;;;2.00;;
77597;SDS011;66756;42.774;23.354;2023-07-29T03:58:15;3.85;;;2.15;;
77597;SDS011;66756;42.774;23.354;2023-07-29T04:00:41;4.93;;;2.25;;
77597;SDS011;66756;42.774;23.354;2023-07-29T04:03:08;4.15;;;1.95;;
77597;SDS011;66756;42.774;23.354;2023-07-29T04:05:34;4.72;;;2.38;;
77597;SDS011;66756;42.774;23.354;2023-07-29T04:08:00;3.85;;;2.10;;
77597;SDS011;66756;42.774;23.354;2023-07-29T04:10:26;3.63;;;2.13;;
77597;SDS011;66756;42.774;23.354;2023-07-29T04:12:56;4.32;;;1.65;;
77597;SDS011;66756;42.774;23.354;2023-07-29T04:15:22;5.43;;;2.05;;
77597;SDS011;66756;42.774;23.354;2023-07-29T04:17:48;3.55;;;1.98;;
77597;SDS011;66756;42.774;23.354;2023-07-29T04:20:14;4.88;;;2.58;;
77597;SDS011;66756;42.774;23.354;2023-07-29T04:22:40;3.42;;;2.30;;
77597;SDS011;66756;42.774;23.354;2023-07-29T04:25:06;4.50;;;2.60;;
77597;SDS011;66756;42.774;23.354;2023-07-29T04:27:32;5.80;;;2.88;;
77597;SDS011;66756;42.774;23.354;2023-07-29T04:29:58;3.45;;;2.13;;
77597;SDS011;66756;42.774;23.354;2023-07-29T04:32:24;3.60;;;2.33;;
77597;SDS011;66756;42.774;23.354;2023-07-29T04:34:50;3.60;;;2.10;;
77597;SDS011;66756;42.774;23.354;2023-07-29T04:37:16;2.97;;;2.15;;
77597;SDS011;66756;42.774;23.354;2023-07-29T04:39:42;3.38;;;2.15;;
77597;SDS011;66756;42.774;23.354;2023-07-29T04:42:09;3.60;;;1.80;;
77597;SDS011;66756;42.774;23.354;2023-07-29T04:44:35;3.75;;;3.15;;
77597;SDS011;66756;42.774;23.354;2023-07-29T04:47:01;3.95;;;1.92;;
77597;SDS011;66756;42.774;23.354;2023-07-29T04:49:27;5.38;;;2.20;;
77597;SDS011;66756;42.774;23.354;2023-07-29T04:51:53;3.17;;;2.10;;
77597;SDS011;66756;42.774;23.354;2023-07-29T04:54:19;3.83;;;2.20;;
77597;SDS011;66756;42.774;23.354;2023-07-29T04:56:46;3.83;;;2.72;;
77597;SDS011;66756;42.774;23.354;2023-07-29T04:59:12;3.40;;;1.75;;
77597;SDS011;66756;42.774;23.354;2023-07-29T05:01:38;3.25;;;2.10;;
77597;SDS011;66756;42.774;23.354;2023-07-29T05:04:04;4.07;;;2.22;;
77597;SDS011;66756;42.774;23.354;2023-07-29T05:06:31;4.78;;;2.83;;
77597;SDS011;66756;42.774;23.354;2023-07-29T05:08:57;3.67;;;2.50;;
77597;SDS011;66756;42.774;23.354;2023-07-29T05:11:23;6.78;;;2.30;;
77597;SDS011;66756;42.774;23.354;2023-07-29T05:13:52;4.70;;;2.80;;
77597;SDS011;66756;42.774;23.354;2023-07-29T05:16:18;6.03;;;2.80;;
77597;SDS011;66756;42.774;23.354;2023-07-29T05:18:44;5.72;;;3.15;;
77597;SDS011;66756;42.774;23.354;2023-07-29T05:21:10;4.65;;;2.60;;
77597;SDS011;66756;42.774;23.354;2023-07-29T05:23:39;4.32;;;2.35;;
77597;SDS011;66756;42.774;23.354;2023-07-29T05:26:05;5.07;;;2.95;;
77597;SDS011;66756;42.774;23.354;2023-07-29T05:28:31;4.72;;;2.47;;
77597;SDS011;66756;42.774;23.354;2023-07-29T05:31:00;4.80;;;3.47;;
77597;SDS011;66756;42.774;23.354;2023-07-29T05:33:26;4.05;;;2.72;;
77597;SDS011;66756;42.774;23.354;2023-07-29T05:35:52;5.28;;;3.05;;
77597;SDS011;66756;42.774;23.354;2023-07-29T05:38:18;5.03;;;2.92;;
77597;SDS011;66756;42.774;23.354;2023-07-29T05:40:44;5.07;;;2.83;;
77597;SDS011;66756;42.774;23.354;2023-07-29T05:43:10;4.95;;;3.53;;
77597;SDS011;66756;42.774;23.354;2023-07-29T05:45:36;7.88;;;3.78;;
77597;SDS011;66756;42.774;23.354;2023-07-29T05:48:02;6.60;;;3.55;;
77597;SDS011;66756;42.774;23.354;2023-07-29T05:50:28;3.72;;;3.03;;
77597;SDS011;66756;42.774;23.354;2023-07-29T05:52:54;4.32;;;3.00;;
77597;SDS011;66756;42.774;23.354;2023-07-29T05:55:20;3.60;;;2.90;;
77597;SDS011;66756;42.774;23.354;2023-07-29T05:57:46;6.07;;;3.60;;
77597;SDS011;66756;42.774;23.354;2023-07-29T06:00:12;5.57;;;3.05;;
77597;SDS011;66756;42.774;23.354;2023-07-29T06:02:39;4.90;;;3.28;;
77597;SDS011;66756;42.774;23.354;2023-07-29T06:05:06;5.15;;;3.20;;
77597;SDS011;66756;42.774;23.354;2023-07-29T06:07:32;6.85;;;3.08;;
77597;SDS011;66756;42.774;23.354;2023-07-29T06:09:59;4.85;;;3.28;;
77597;SDS011;66756;42.774;23.354;2023-07-29T06:12:25;3.40;;;2.75;;
77597;SDS011;66756;42.774;23.354;2023-07-29T06:14:51;5.88;;;3.47;;
77597;SDS011;66756;42.774;23.354;2023-07-29T06:17:17;5.68;;;3.90;;
77597;SDS011;66756;42.774;23.354;2023-07-29T06:19:43;6.50;;;3.38;;
77597;SDS011;66756;42.774;23.354;2023-07-29T06:22:09;4.78;;;3.72;;
77597;SDS011;66756;42.774;23.354;2023-07-29T06:24:36;6.10;;;3.72;;
77597;SDS011;66756;42.774;23.354;2023-07-29T06:27:02;4.20;;;3.60;;
77597;SDS011;66756;42.774;23.354;2023-07-29T06:29:28;4.82;;;3.75;;
77597;SDS011;66756;42.774;23.354;2023-07-29T06:31:54;5.30;;;3.45;;
77597;SDS011;66756;42.774;23.354;2023-07-29T06:34:20;7.50;;;3.72;;
77597;SDS011;66756;42.774;23.354;2023-07-29T06:36:46;6.00;;;3.53;;
77597;SDS011;66756;42.774;23.354;2023-07-29T06:39:12;5.15;;;4.00;;
77597;SDS011;66756;42.774;23.354;2023-07-29T06:41:38;6.05;;;3.80;;
77597;SDS011;66756;42.774;23.354;2023-07-29T06:44:04;5.28;;;3.75;;
77597;SDS011;66756;42.774;23.354;2023-07-29T06:46:30;7.00;;;4.47;;
77597;SDS011;66756;42.774;23.354;2023-07-29T06:48:56;7.13;;;4.03;;
77597;SDS011;66756;42.774;23.354;2023-07-29T06:51:22;7.40;;;4.70;;
77597;SDS011;66756;42.774;23.354;2023-07-29T06:53:48;5.00;;;4.13;;
77597;SDS011;66756;42.774;23.354;2023-07-29T06:56:14;6.90;;;3.92;;
77597;SDS011;66756;42.774;23.354;2023-07-29T06:58:40;4.78;;;3.75;;
77597;SDS011;66756;42.774;23.354;2023-07-29T07:01:06;10.73;;;5.13;;
77597;SDS011;66756;42.774;23.354;2023-07-29T07:03:32;6.93;;;4.68;;
77597;SDS011;66756;42.774;23.354;2023-07-29T07:05:58;7.43;;;4.45;;
77597;SDS011;66756;42.774;23.354;2023-07-29T07:08:25;5.53;;;4.18;;
77597;SDS011;66756;42.774;23.354;2023-07-29T07:10:51;5.63;;;3.97;;
77597;SDS011;66756;42.774;23.354;2023-07-29T07:13:17;6.10;;;5.15;;
77597;SDS011;66756;42.774;23.354;2023-07-29T07:15:43;6.43;;;4.45;;
77597;SDS011;66756;42.774;23.354;2023-07-29T07:18:10;6.38;;;4.22;;
77597;SDS011;66756;42.774;23.354;2023-07-29T07:20:36;4.45;;;3.55;;
77597;SDS011;66756;42.774;23.354;2023-07-29T07:23:02;5.28;;;3.80;;
77597;SDS011;66756;42.774;23.354;2023-07-29T07:25:30;5.20;;;3.80;;
77597;SDS011;66756;42.774;23.354;2023-07-29T07:27:56;5.05;;;4.32;;
77597;SDS011;66756;42.774;23.354;2023-07-29T07:30:22;7.90;;;3.63;;
77597;SDS011;66756;42.774;23.354;2023-07-29T07:32:48;6.55;;;4.22;;
77597;SDS011;66756;42.774;23.354;2023-07-29T07:35:15;6.80;;;3.03;;
77597;SDS011;66756;42.774;23.354;2023-07-29T07:37:42;4.32;;;3.78;;
77597;SDS011;66756;42.774;23.354;2023-07-29T07:40:08;4.28;;;3.88;;
77597;SDS011;66756;42.774;23.354;2023-07-29T07:42:34;4.10;;;3.17;;
77597;SDS011;66756;42.774;23.354;2023-07-29T07:45:00;5.20;;;3.15;;
77597;SDS011;66756;42.774;23.354;2023-07-29T07:47:27;6.60;;;3.10;;
77597;SDS011;66756;42.774;23.354;2023-07-29T07:49:53;7.30;;;3.70;;
77597;SDS011;66756;42.774;23.354;2023-07-29T07:52:19;5.20;;;4.40;;
77597;SDS011;66756;42.774;23.354;2023-07-29T07:54:45;5.60;;;4.75;;
77597;SDS011;66756;42.774;23.354;2023-07-29T07:57:11;6.30;;;4.25;;
77597;SDS011;66756;42.774;23.354;2023-07-29T07:59:37;5.97;;;3.50;;
77597;SDS011;66756;42.774;23.354;2023-07-29T08:02:03;5.47;;;3.58;;
77597;SDS011;66756;42.774;23.354;2023-07-29T08:04:29;4.80;;;3.17;;
77597;SDS011;66756;42.774;23.354;2023-07-29T08:06:55;4.13;;;3.08;;
77597;SDS011;66756;42.774;23.354;2023-07-29T08:09:21;11.90;;;6.57;;
77597;SDS011;66756;42.774;23.354;2023-07-29T08:11:47;10.38;;;5.40;;
77597;SDS011;66756;42.774;23.354;2023-07-29T08:14:13;4.97;;;3.13;;
77597;SDS011;66756;42.774;23.354;2023-07-29T08:16:39;4.50;;;3.33;;
77597;SDS011;66756;42.774;23.354;2023-07-29T08:19:05;3.95;;;3.28;;
77597;SDS011;66756;42.774;23.354;2023-07-29T08:21:34;5.80;;;2.92;;
77597;SDS011;66756;42.774;23.354;2023-07-29T08:24:00;3.45;;;2.92;;
77597;SDS011;66756;42.774;23.354;2023-07-29T08:26:26;5.18;;;3.15;;
77597;SDS011;66756;42.774;23.354;2023-07-29T08:28:52;5.00;;;2.60;;
77597;SDS011;66756;42.774;23.354;2023-07-29T08:31:18;9.30;;;2.92;;
77597;SDS011;66756;42.774;23.354;2023-07-29T08:33:44;2.88;;;2.00;;
77597;SDS011;66756;42.774;23.354;2023-07-29T08:36:10;5.13;;;2.30;;
77597;SDS011;66756;42.774;23.354;2023-07-29T08:38:36;3.85;;;2.17;;
77597;SDS011;66756;42.774;23.354;2023-07-29T08:43:52;4.38;;;2.25;;
77597;SDS011;66756;42.774;23.354;2023-07-29T08:46:19;3.65;;;2.22;;
77597;SDS011;66756;42.774;23.354;2023-07-29T08:48:45;3.58;;;2.20;;
77597;SDS011;66756;42.774;23.354;2023-07-29T08:51:11;3.88;;;2.03;;
77597;SDS011;66756;42.774;23.354;2023-07-29T08:53:38;4.43;;;1.70;;
77597;SDS011;66756;42.774;23.354;2023-07-29T08:56:04;3.10;;;1.67;;
77597;SDS011;66756;42.774;23.354;2023-07-29T08:58:31;3.17;;;1.63;;
77597;SDS011;66756;42.774;23.354;2023-07-29T09:00:57;2.63;;;1.52;;
77597;SDS011;66756;42.774;23.354;2023-07-29T09:03:23;2.28;;;1.63;;
77597;SDS011;66756;42.774;23.354;2023-07-29T09:05:50;2.35;;;1.20;;
77597;SDS011;66756;42.774;23.354;2023-07-29T09:08:16;3.60;;;1.50;;
77597;SDS011;66756;42.774;23.354;2023-07-29T09:10:43;2.55;;;1.27;;
77597;SDS011;66756;42.774;23.354;2023-07-29T09:13:09;3.33;;;1.17;;
77597;SDS011;66756;42.774;23.354;2023-07-29T09:15:35;2.50;;;1.00;;
77597;SDS011;66756;42.774;23.354;2023-07-29T09:18:11;2.30;;;1.48;;
77597;SDS011;66756;42.774;23.354;2023-07-29T09:20:38;2.67;;;1.17;;
77597;SDS011;66756;42.774;23.354;2023-07-29T09:23:07;1.95;;;1.13;;
77597;SDS011;66756;42.774;23.354;2023-07-29T09:25:34;1.95;;;1.00;;
77597;SDS011;66756;42.774;23.354;2023-07-29T09:28:00;1.67;;;1.02;;
77597;SDS011;66756;42.774;23.354;2023-07-29T09:30:28;2.83;;;1.55;;
77597;SDS011;66756;42.774;23.354;2023-07-29T09:32:54;1.65;;;1.15;;
77597;SDS011;66756;42.774;23.354;2023-07-29T09:35:21;2.42;;;1.17;;
77597;SDS011;66756;42.774;23.354;2023-07-29T09:37:47;1.98;;;1.35;;
77597;SDS011;66756;42.774;23.354;2023-07-29T09:40:15;1.63;;;1.13;;
77597;SDS011;66756;42.774;23.354;2023-07-29T09:42:47;2.00;;;1.55;;
77597;SDS011;66756;42.774;23.354;2023-07-29T09:45:18;1.75;;;1.23;;
77597;SDS011;66756;42.774;23.354;2023-07-29T09:47:45;1.40;;;0.88;;
77597;SDS011;66756;42.774;23.354;2023-07-29T09:50:11;3.03;;;1.40;;
77597;SDS011;66756;42.774;23.354;2023-07-29T09:52:37;2.65;;;0.98;;
77597;SDS011;66756;42.774;23.354;2023-07-29T09:55:04;2.65;;;1.40;;
77597;SDS011;66756;42.774;23.354;2023-07-29T09:57:31;2.22;;;0.93;;
77597;SDS011;66756;42.774;23.354;2023-07-29T09:59:57;1.48;;;1.13;;
77597;SDS011;66756;42.774;23.354;2023-07-29T10:02:24;2.63;;;0.90;;
77597;SDS011;66756;42.774;23.354;2023-07-29T10:04:53;1.80;;;0.55;;
77597;SDS011;66756;42.774;23.354;2023-07-29T10:07:20;1.23;;;0.55;;
77597;SDS011;66756;42.774;23.354;2023-07-29T10:09:46;0.50;;;0.22;;
77597;SDS011;66756;42.774;23.354;2023-07-29T10:12:13;0.60;;;0.40;;
77597;SDS011;66756;42.774;23.354;2023-07-29T10:14:39;0.75;;;0.35;;
77597;SDS011;66756;42.774;23.354;2023-07-29T10:17:06;1.52;;;0.60;;
77597;SDS011;66756;42.774;23.354;2023-07-29T10:19:32;1.95;;;0.40;;
77597;SDS011;66756;42.774;23.354;2023-07-29T10:21:59;0.88;;;0.50;;
77597;SDS011;66756;42.774;23.354;2023-07-29T10:24:29;0.60;;;0.35;;
77597;SDS011;66756;42.774;23.354;2023-07-29T10:26:59;1.02;;;0.40;;
77597;SDS011;66756;42.774;23.354;2023-07-29T10:29:30;0.95;;;0.70;;
77597;SDS011;66756;42.774;23.354;2023-07-29T10:31:57;1.02;;;0.52;;
77597;SDS011;66756;42.774;23.354;2023-07-29T10:34:27;1.73;;;0.30;;
77597;SDS011;66756;42.774;23.354;2023-07-29T10:36:53;1.50;;;0.52;;
77597;SDS011;66756;42.774;23.354;2023-07-29T10:39:20;0.90;;;0.60;;
77597;SDS011;66756;42.774;23.354;2023-07-29T10:47:19;1.40;;;0.77;;
77597;SDS011;66756;42.774;23.354;2023-07-29T10:49:46;0.85;;;0.50;;
77597;SDS011;66756;42.774;23.354;2023-07-29T10:52:12;1.05;;;0.52;;
77597;SDS011;66756;42.774;23.354;2023-07-29T10:54:46;1.15;;;0.52;;
77597;SDS011;66756;42.774;23.354;2023-07-29T10:57:16;2.88;;;0.60;;
77597;SDS011;66756;42.774;23.354;2023-07-29T10:59:56;1.30;;;0.55;;
77597;SDS011;66756;42.774;23.354;2023-07-29T11:02:28;1.00;;;0.60;;
77597;SDS011;66756;42.774;23.354;2023-07-29T11:04:54;1.15;;;0.52;;
77597;SDS011;66756;42.774;23.354;2023-07-29T11:07:24;0.90;;;0.60;;
77597;SDS011;66756;42.774;23.354;2023-07-29T11:09:54;1.45;;;0.63;;
77597;SDS011;66756;42.774;23.354;2023-07-29T11:12:34;1.30;;;0.82;;
77597;SDS011;66756;42.774;23.354;2023-07-29T11:17:32;1.42;;;0.73;;
77597;SDS011;66756;42.774;23.354;2023-07-29T11:20:01;1.15;;;0.57;;
77597;SDS011;66756;42.774;23.354;2023-07-29T11:22:28;0.93;;;0.63;;
77597;SDS011;66756;42.774;23.354;2023-07-29T11:24:54;1.52;;;0.45;;
77597;SDS011;66756;42.774;23.354;2023-07-29T11:27:20;0.75;;;0.20;;
77597;SDS011;66756;42.774;23.354;2023-07-29T11:29:46;1.15;;;0.40;;
77597;SDS011;66756;42.774;23.354;2023-07-29T11:32:13;0.90;;;0.55;;
77597;SDS011;66756;42.774;23.354;2023-07-29T11:34:39;0.98;;;0.43;;
77597;SDS011;66756;42.774;23.354;2023-07-29T11:37:05;0.60;;;0.32;;
77597;SDS011;66756;42.774;23.354;2023-07-29T11:39:32;0.77;;;0.40;;
77597;SDS011;66756;42.774;23.354;2023-07-29T11:41:58;1.10;;;1.02;;
77597;SDS011;66756;42.774;23.354;2023-07-29T11:44:27;1.13;;;0.57;;
77597;SDS011;66756;42.774;23.354;2023-07-29T11:46:53;0.93;;;0.30;;
77597;SDS011;66756;42.774;23.354;2023-07-29T11:49:19;0.65;;;0.20;;
77597;SDS011;66756;42.774;23.354;2023-07-29T11:51:45;0.80;;;0.38;;
77597;SDS011;66756;42.774;23.354;2023-07-29T11:54:11;0.65;;;0.20;;
77597;SDS011;66756;42.774;23.354;2023-07-29T11:56:38;1.50;;;0.52;;
77597;SDS011;66756;42.774;23.354;2023-07-29T11:59:04;1.23;;;0.63;;
77597;SDS011;66756;42.774;23.354;2023-07-29T12:01:30;1.17;;;0.82;;
77597;SDS011;66756;42.774;23.354;2023-07-29T12:03:56;1.40;;;0.50;;
77597;SDS011;66756;42.774;23.354;2023-07-29T12:06:23;2.42;;;0.60;;
77597;SDS011;66756;42.774;23.354;2023-07-29T12:08:50;2.28;;;0.38;;
77597;SDS011;66756;42.774;23.354;2023-07-29T12:11:16;1.23;;;0.68;;
77597;SDS011;66756;42.774;23.354;2023-07-29T12:13:42;0.68;;;0.45;;
77597;SDS011;66756;42.774;23.354;2023-07-29T12:16:08;0.73;;;0.30;;
77597;SDS011;66756;42.774;23.354;2023-07-29T12:18:35;2.10;;;0.52;;
77597;SDS011;66756;42.774;23.354;2023-07-29T12:21:02;1.55;;;0.22;;
77597;SDS011;66756;42.774;23.354;2023-07-29T12:23:28;1.05;;;0.52;;
77597;SDS011;66756;42.774;23.354;2023-07-29T12:25:58;1.38;;;0.30;;
77597;SDS011;66756;42.774;23.354;2023-07-29T12:28:25;0.85;;;0.47;;
77597;SDS011;66756;42.774;23.354;2023-07-29T12:30:54;0.75;;;0.55;;
77597;SDS011;66756;42.774;23.354;2023-07-29T12:35:56;0.85;;;0.30;;
77597;SDS011;66756;42.774;23.354;2023-07-29T12:38:22;0.98;;;0.47;;
77597;SDS011;66756;42.774;23.354;2023-07-29T12:40:48;1.17;;;0.50;;
77597;SDS011;66756;42.774;23.354;2023-07-29T12:43:14;0.95;;;0.60;;
77597;SDS011;66756;42.774;23.354;2023-07-29T12:45:40;1.20;;;0.38;;
77597;SDS011;66756;42.774;23.354;2023-07-29T12:48:07;2.50;;;0.40;;
77597;SDS011;66756;42.774;23.354;2023-07-29T12:50:33;4.57;;;0.98;;
77597;SDS011;66756;42.774;23.354;2023-07-29T12:52:59;1.00;;;0.40;;
77597;SDS011;66756;42.774;23.354;2023-07-29T12:55:25;1.50;;;0.63;;
77597;SDS011;66756;42.774;23.354;2023-07-29T12:57:51;1.10;;;0.73;;
77597;SDS011;66756;42.774;23.354;2023-07-29T13:00:17;0.90;;;0.20;;
77597;SDS011;66756;42.774;23.354;2023-07-29T13:02:43;1.25;;;0.43;;
77597;SDS011;66756;42.774;23.354;2023-07-29T13:05:10;1.10;;;0.65;;
77597;SDS011;66756;42.774;23.354;2023-07-29T13:07:40;1.10;;;0.50;;
77597;SDS011;66756;42.774;23.354;2023-07-29T13:10:06;1.40;;;0.80;;
77597;SDS011;66756;42.774;23.354;2023-07-29T13:12:32;1.00;;;0.47;;
77597;SDS011;66756;42.774;23.354;2023-07-29T13:14:58;1.10;;;0.77;;
77597;SDS011;66756;42.774;23.354;2023-07-29T13:17:24;1.85;;;0.63;;
77597;SDS011;66756;42.774;23.354;2023-07-29T13:19:50;1.77;;;0.50;;
77597;SDS011;66756;42.774;23.354;2023-07-29T13:22:17;0.85;;;0.22;;
77597;SDS011;66756;42.774;23.354;2023-07-29T13:24:43;1.33;;;0.60;;
77597;SDS011;66756;42.774;23.354;2023-07-29T13:27:09;1.23;;;0.47;;
77597;SDS011;66756;42.774;23.354;2023-07-29T13:29:35;0.93;;;0.25;;
77597;SDS011;66756;42.774;23.354;2023-07-29T13:32:01;0.95;;;0.50;;
77597;SDS011;66756;42.774;23.354;2023-07-29T13:34:27;1.52;;;0.60;;
77597;SDS011;66756;42.774;23.354;2023-07-29T13:36:53;1.65;;;0.63;;
77597;SDS011;66756;42.774;23.354;2023-07-29T13:39:19;1.25;;;0.40;;
77597;SDS011;66756;42.774;23.354;2023-07-29T13:41:45;1.15;;;0.63;;
77597;SDS011;66756;42.774;23.354;2023-07-29T13:44:11;1.42;;;0.70;;
77597;SDS011;66756;42.774;23.354;2023-07-29T13:46:37;3.17;;;0.85;;
77597;SDS011;66756;42.774;23.354;2023-07-29T13:49:03;2.65;;;1.17;;
77597;SDS011;66756;42.774;23.354;2023-07-29T13:51:29;1.60;;;0.95;;
77597;SDS011;66756;42.774;23.354;2023-07-29T13:53:55;2.40;;;0.52;;
77597;SDS011;66756;42.774;23.354;2023-07-29T13:56:21;1.55;;;0.68;;
77597;SDS011;66756;42.774;23.354;2023-07-29T13:58:47;1.70;;;0.98;;
77597;SDS011;66756;42.774;23.354;2023-07-29T14:01:13;1.40;;;0.85;;
77597;SDS011;66756;42.774;23.354;2023-07-29T14:03:39;1.65;;;0.90;;
77597;SDS011;66756;42.774;23.354;2023-07-29T14:06:05;3.25;;;1.08;;
77597;SDS011;66756;42.774;23.354;2023-07-29T14:08:31;1.20;;;0.90;;
77597;SDS011;66756;42.774;23.354;2023-07-29T14:10:57;1.90;;;0.63;;
77597;SDS011;66756;42.774;23.354;2023-07-29T14:13:23;1.55;;;1.00;;
77597;SDS011;66756;42.774;23.354;2023-07-29T14:15:49;1.45;;;0.95;;
77597;SDS011;66756;42.774;23.354;2023-07-29T14:18:15;1.60;;;0.90;;
77597;SDS011;66756;42.774;23.354;2023-07-29T14:20:41;1.05;;;0.70;;
77597;SDS011;66756;42.774;23.354;2023-07-29T14:23:07;1.67;;;0.85;;
77597;SDS011;66756;42.774;23.354;2023-07-29T14:25:33;1.30;;;0.70;;
77597;SDS011;66756;42.774;23.354;2023-07-29T14:27:59;1.40;;;0.70;;
77597;SDS011;66756;42.774;23.354;2023-07-29T14:30:26;6.68;;;1.45;;
77597;SDS011;66756;42.774;23.354;2023-07-29T14:32:52;2.53;;;0.82;;
77597;SDS011;66756;42.774;23.354;2023-07-29T14:35:18;2.15;;;0.45;;
77597;SDS011;66756;42.774;23.354;2023-07-29T14:37:44;2.08;;;0.60;;
77597;SDS011;66756;42.774;23.354;2023-07-29T14:40:10;1.60;;;0.80;;
77597;SDS011;66756;42.774;23.354;2023-07-29T14:42:36;1.63;;;0.70;;
77597;SDS011;66756;42.774;23.354;2023-07-29T14:45:02;1.02;;;0.40;;
77597;SDS011;66756;42.774;23.354;2023-07-29T14:47:28;1.50;;;0.73;;
77597;SDS011;66756;42.774;23.354;2023-07-29T14:49:59;2.03;;;0.98;;